Alleghenyville, Pennsylvania
Current Conditions -  °F | °C
As of 4:54 AM on Saturday 01 Nov 2014 (Local Time) from KRDG Reporting Station
Overcast Overcast  
Wind Chill: 45°   Ceiling: 2100
Heat Index: 49°   Visibility: 10mi
Dew Point: 41°   Wind: 10mph
Humidity: 74%   Direction: 40°NE
Pressure: 29.79"   Gusts: NA
Location:  40.2411°N, 75.9752°W
Report Text: KRDG 010854Z 04009KT 10SM OVC021 09/05 A2979 RMK AO2 SLP094 60001 T00940050 58011
Loading
Personal Weather Stations






























Interactive Weather Map
Tropical Storm Tracking
New forecast layout! Learn more

10-Day Weather Forecast

Advertisements
Track Severe Weather on mobile